KMTH 251026Z 2510/2606 12008G15KT P6SM VCSH FEW025
FM251200 15007KT P6SM FEW025
From batch tds/tafs/production/2023/1/25/h10_m29_tafs.cache.xml
Issued (10 days ago)
Forecasts
2510/2512 12008G15KT P6SM FEW2500

---
wx_string: VCSH
fcst_time_to: '2023-01-25T12:00:00Z'
wind_gust_kt: '15'
sky_condition:
- sky_cover: FEW
  cloud_base_ft_agl: '2500'
wind_speed_kt: '8'
fcst_time_from: '2023-01-25T10:00:00Z'
wind_dir_degrees: '120'
visibility_statute_mi: '6.21'

FM251200 15007KT P6SM FEW2500

---
fcst_time_to: '2023-01-26T06:00:00Z'
sky_condition:
- sky_cover: FEW
  cloud_base_ft_agl: '2500'
wind_speed_kt: '7'
fcst_time_from: '2023-01-25T12:00:00Z'
change_indicator: FM
wind_dir_degrees: '150'
visibility_statute_mi: '6.21'

talk